createdAt,value
2019-03-05T00:01:26.182Z,4.63
2019-03-05T00:04:30.139Z,4.43
2019-03-05T00:07:34.453Z,4.90
2019-03-05T00:10:38.134Z,4.67
2019-03-05T00:13:42.071Z,5.23
2019-03-05T00:16:45.950Z,5.23
2019-03-05T00:19:49.763Z,5.63
2019-03-05T00:22:53.424Z,5.63
2019-03-05T00:25:57.118Z,6.35
2019-03-05T00:29:23.970Z,6.07
2019-03-05T00:32:27.725Z,5.50
2019-03-05T00:36:01.701Z,5.80
2019-03-05T00:39:41.295Z,5.60
2019-03-05T00:43:03.110Z,5.57
2019-03-05T00:46:48.798Z,6.00
2019-03-05T00:50:26.585Z,6.27
2019-03-05T00:54:07.521Z,6.33
2019-03-05T00:57:25.638Z,6.90
2019-03-05T01:00:48.942Z,6.30
2019-03-05T01:04:16.711Z,6.80
2019-03-05T01:07:20.847Z,6.80
2019-03-05T01:10:24.591Z,6.80
2019-03-05T01:13:28.602Z,6.50
2019-03-05T01:16:34.213Z,6.27
2019-03-05T01:19:38.193Z,6.70
2019-03-05T01:22:42.141Z,6.37
2019-03-05T01:25:46.550Z,6.60
2019-03-05T01:28:50.693Z,5.90
2019-03-05T01:32:01.820Z,6.17
2019-03-05T01:35:21.692Z,6.17
2019-03-05T01:38:25.480Z,5.90
2019-03-05T01:41:29.406Z,6.00
2019-03-05T01:44:33.187Z,6.17
2019-03-05T01:47:36.923Z,6.20
2019-03-05T01:50:40.915Z,5.33
2019-03-05T01:53:44.598Z,5.23
2019-03-05T01:56:48.380Z,5.57
2019-03-05T01:59:52.175Z,5.23
2019-03-05T02:02:55.927Z,5.77
2019-03-05T02:05:59.660Z,5.23
2019-03-05T02:09:04.887Z,5.40
2019-03-05T02:12:08.790Z,5.33
2019-03-05T02:15:12.694Z,4.73
2019-03-05T02:18:19.488Z,4.70
2019-03-05T02:21:23.170Z,4.67
2019-03-05T02:24:58.931Z,4.53
2019-03-05T02:28:25.846Z,4.70
2019-03-05T02:32:10.024Z,4.70
2019-03-05T02:35:43.743Z,4.87
2019-03-05T02:39:14.008Z,4.60
2019-03-05T02:42:56.438Z,4.67
2019-03-05T02:46:19.658Z,4.58
2019-03-05T02:49:57.785Z,5.13
2019-03-05T02:53:12.822Z,4.67
2019-03-05T02:56:28.158Z,4.90
2019-03-05T02:59:31.867Z,4.87
2019-03-05T03:02:54.746Z,5.10
2019-03-05T03:06:17.653Z,5.10
2019-03-05T03:10:08.936Z,5.13
2019-03-05T03:13:12.691Z,4.80
2019-03-05T03:16:16.447Z,5.67
2019-03-05T03:19:20.112Z,5.20
2019-03-05T03:22:24.071Z,5.73
2019-03-05T03:25:28.277Z,5.27
2019-03-05T03:28:31.954Z,5.00
2019-03-05T03:31:36.553Z,4.70
2019-03-05T03:34:40.323Z,4.80
2019-03-05T03:37:44.431Z,4.70
2019-03-05T03:40:48.422Z,4.70
2019-03-05T03:43:52.184Z,5.07
2019-03-05T03:46:55.922Z,4.67
2019-03-05T03:49:59.566Z,4.20
2019-03-05T03:53:03.261Z,4.50
2019-03-05T03:56:07.026Z,4.78
2019-03-05T03:59:10.796Z,4.43
2019-03-05T04:02:14.441Z,4.40
2019-03-05T04:05:18.186Z,4.20
2019-03-05T04:08:21.834Z,3.70
2019-03-05T04:11:25.604Z,4.30
2019-03-05T04:14:29.258Z,4.10
2019-03-05T04:17:33.198Z,4.03
2019-03-05T04:20:43.802Z,3.80
2019-03-05T04:23:47.502Z,4.13
2019-03-05T04:26:51.211Z,4.20
2019-03-05T04:29:54.929Z,3.80
2019-03-05T04:32:58.837Z,4.30
2019-03-05T04:36:02.570Z,4.43
2019-03-05T04:39:11.105Z,4.30
2019-03-05T04:42:14.830Z,4.10
2019-03-05T04:45:52.143Z,4.37
2019-03-05T04:49:27.047Z,4.27
2019-03-05T04:52:34.021Z,4.53
2019-03-05T04:55:37.822Z,5.20
2019-03-05T04:58:41.491Z,5.20
2019-03-05T05:01:45.199Z,5.00
2019-03-05T05:04:48.879Z,5.43
2019-03-05T05:07:52.665Z,5.90
2019-03-05T05:10:56.336Z,5.27
2019-03-05T05:14:00.046Z,5.27
2019-03-05T05:17:03.685Z,5.50
2019-03-05T05:20:07.417Z,6.10
2019-03-05T05:23:11.126Z,6.17
2019-03-05T05:26:14.795Z,6.23
2019-03-05T05:29:18.442Z,6.43
2019-03-05T05:32:22.163Z,6.00
2019-03-05T05:35:25.826Z,6.25
2019-03-05T05:38:29.512Z,6.10
2019-03-05T05:41:33.178Z,7.17
2019-03-05T05:44:36.878Z,6.97
2019-03-05T05:47:40.583Z,6.87
2019-03-05T05:50:44.299Z,6.80
2019-03-05T05:53:48.010Z,7.00
2019-03-05T05:56:51.656Z,7.03
2019-03-05T05:59:55.370Z,7.27
2019-03-05T06:02:59.040Z,7.10
2019-03-05T06:06:02.748Z,6.80
2019-03-05T06:09:07.490Z,6.97
2019-03-05T06:12:11.465Z,7.07
2019-03-05T06:15:15.543Z,7.30
2019-03-05T06:18:19.473Z,7.63
2019-03-05T06:21:23.182Z,7.70
2019-03-05T06:24:26.923Z,7.40
2019-03-05T06:27:30.610Z,7.23
2019-03-05T06:30:34.919Z,7.77
2019-03-05T06:33:38.605Z,7.57
2019-03-05T06:36:56.153Z,7.30
2019-03-05T06:39:59.886Z,7.67
2019-03-05T06:43:03.632Z,7.87
2019-03-05T06:46:08.207Z,7.83
2019-03-05T06:49:11.888Z,7.37
2019-03-05T06:52:15.545Z,7.60
2019-03-05T06:55:20.766Z,6.87
2019-03-05T06:58:24.437Z,7.40
2019-03-05T07:01:28.148Z,7.80
2019-03-05T07:04:31.813Z,7.60
2019-03-05T07:07:35.534Z,7.00
2019-03-05T07:11:04.246Z,8.03
2019-03-05T07:14:13.810Z,7.20
2019-03-05T07:17:27.210Z,6.47
2019-03-05T07:20:58.190Z,6.53
2019-03-05T07:24:19.446Z,6.63
2019-03-05T07:27:42.107Z,6.30
2019-03-05T07:30:45.790Z,6.40
2019-03-05T07:33:49.493Z,6.30
2019-03-05T07:36:53.217Z,7.03
2019-03-05T07:39:57.058Z,6.83
2019-03-05T07:43:00.761Z,6.80
2019-03-05T07:46:04.723Z,6.50
2019-03-05T07:49:08.618Z,6.40
2019-03-05T07:52:12.811Z,6.40
2019-03-05T07:55:17.370Z,6.00
2019-03-05T07:58:21.057Z,6.67
2019-03-05T08:01:24.708Z,6.63
2019-03-05T08:04:28.407Z,7.00
2019-03-05T08:07:32.113Z,7.40
2019-03-05T08:10:35.813Z,6.50
2019-03-05T08:13:58.485Z,6.93
2019-03-05T08:17:02.191Z,7.47
2019-03-05T08:20:07.991Z,7.07
2019-03-05T08:23:11.671Z,6.60
2019-03-05T08:26:15.401Z,6.70
2019-03-05T08:29:19.630Z,6.28
2019-03-05T08:32:23.498Z,6.43
2019-03-05T08:35:27.561Z,5.90
2019-03-05T08:38:31.244Z,5.80
2019-03-05T08:41:34.954Z,6.22
2019-03-05T08:44:49.672Z,5.80
2019-03-05T08:47:44.577Z,6.10
2019-03-05T08:50:48.227Z,6.17
2019-03-05T08:53:51.938Z,5.27
2019-03-05T08:56:55.633Z,5.93
2019-03-05T08:59:59.427Z,5.30
2019-03-05T09:03:03.301Z,5.73
2019-03-05T09:06:07.094Z,5.40
2019-03-05T09:09:12.446Z,4.90
2019-03-05T09:12:16.193Z,4.50
2019-03-05T09:15:20.082Z,4.67
2019-03-05T09:18:23.770Z,4.67
2019-03-05T09:21:27.439Z,4.90
2019-03-05T09:24:31.111Z,5.10
2019-03-05T09:27:34.762Z,4.77
2019-03-05T09:30:38.465Z,4.50
2019-03-05T09:33:42.106Z,4.65
2019-03-05T09:36:50.818Z,4.50
2019-03-05T09:39:51.634Z,4.53
2019-03-05T09:42:55.603Z,4.87
2019-03-05T09:45:59.389Z,5.07
2019-03-05T09:49:03.067Z,5.07
2019-03-05T09:52:06.747Z,4.80
2019-03-05T09:55:12.991Z,5.10
2019-03-05T09:58:19.320Z,5.00
2019-03-05T10:01:23.030Z,5.17
2019-03-05T10:04:26.714Z,4.83
2019-03-05T10:07:30.366Z,5.70
2019-03-05T10:10:34.215Z,5.37
2019-03-05T10:13:37.877Z,5.47
2019-03-05T10:16:41.588Z,5.03
2019-03-05T10:19:45.259Z,5.33
2019-03-05T10:22:49.174Z,5.70
2019-03-05T10:25:53.054Z,5.03
2019-03-05T10:28:56.874Z,4.83
2019-03-05T10:32:00.635Z,5.10
2019-03-05T10:35:04.858Z,5.40
2019-03-05T10:38:09.755Z,5.20
2019-03-05T10:41:13.583Z,4.57
2019-03-05T10:44:17.318Z,4.37
2019-03-05T10:47:21.033Z,4.47
2019-03-05T10:50:25.730Z,4.40
2019-03-05T10:53:29.697Z,4.43
2019-03-05T10:56:33.443Z,4.63
2019-03-05T10:59:37.150Z,5.10
2019-03-05T11:02:40.814Z,4.90
2019-03-05T11:05:44.682Z,4.03
2019-03-05T11:08:49.512Z,5.33
2019-03-05T11:11:53.706Z,4.30
2019-03-05T11:14:57.421Z,4.30
2019-03-05T11:18:01.566Z,3.83
2019-03-05T11:21:06.083Z,4.30
2019-03-05T11:24:09.790Z,4.10
2019-03-05T11:27:13.490Z,4.37
2019-03-05T11:30:19.486Z,4.30
2019-03-05T11:33:23.230Z,4.50
2019-03-05T11:36:27.072Z,4.40
2019-03-05T11:39:30.818Z,4.20
2019-03-05T11:42:34.585Z,4.43
2019-03-05T11:45:38.691Z,4.90
2019-03-05T11:48:42.410Z,4.53
2019-03-05T11:51:46.137Z,4.53
2019-03-05T11:54:49.791Z,4.00
2019-03-05T11:57:53.625Z,4.20
2019-03-05T12:01:16.742Z,3.97
2019-03-05T12:04:20.454Z,5.00
2019-03-05T12:07:24.140Z,4.37
2019-03-05T12:10:28.227Z,4.03
2019-03-05T12:13:32.006Z,3.98
2019-03-05T12:16:35.688Z,3.93
2019-03-05T12:19:39.361Z,3.93
2019-03-05T12:22:43.134Z,4.07
2019-03-05T12:25:46.910Z,3.83
2019-03-05T12:28:50.651Z,3.97
2019-03-05T12:31:54.318Z,4.50
2019-03-05T12:34:58.179Z,4.60
2019-03-05T12:38:01.825Z,4.40
2019-03-05T12:41:05.542Z,4.33
2019-03-05T12:44:09.239Z,4.50
2019-03-05T12:47:12.925Z,4.20
2019-03-05T12:50:17.783Z,4.20
2019-03-05T12:53:21.661Z,4.20
2019-03-05T12:56:25.392Z,4.30
2019-03-05T12:59:29.058Z,4.10
2019-03-05T13:02:32.778Z,4.20
2019-03-05T13:05:36.430Z,4.60
2019-03-05T13:08:40.668Z,4.53
2019-03-05T13:11:46.550Z,4.20
2019-03-05T13:14:49.742Z,4.80
2019-03-05T13:17:53.454Z,5.33
2019-03-05T13:20:57.134Z,5.20
2019-03-05T13:24:00.876Z,5.60
2019-03-05T13:27:04.976Z,5.93
2019-03-05T13:30:11.516Z,5.67
2019-03-05T13:33:15.193Z,5.50
2019-03-05T13:36:18.841Z,5.83
2019-03-05T13:39:23.875Z,5.30
2019-03-05T13:42:29.017Z,5.70
2019-03-05T13:45:33.325Z,5.45
2019-03-05T13:49:17.910Z,4.87
2019-03-05T13:52:57.054Z,4.78
2019-03-05T13:56:17.058Z,4.70
2019-03-05T13:59:35.147Z,4.60
2019-03-05T14:03:10.598Z,5.00
2019-03-05T14:06:42.069Z,4.40
2019-03-05T14:09:44.594Z,4.60
2019-03-05T14:12:48.531Z,4.60
2019-03-05T14:15:52.761Z,4.63
2019-03-05T14:18:56.514Z,4.67
2019-03-05T14:22:00.417Z,3.73
2019-03-05T14:25:04.991Z,4.90
2019-03-05T14:28:08.678Z,4.60
2019-03-05T14:31:12.397Z,4.90
2019-03-05T14:34:16.278Z,4.40
2019-03-05T14:37:20.147Z,4.50
2019-03-05T14:40:29.195Z,4.70
2019-03-05T14:43:32.939Z,4.50
2019-03-05T14:46:36.991Z,4.67
2019-03-05T14:49:40.700Z,4.47
2019-03-05T14:52:44.493Z,4.03
2019-03-05T14:55:48.260Z,4.27
2019-03-05T14:58:52.044Z,4.10
2019-03-05T15:01:56.016Z,4.30
2019-03-05T15:04:59.777Z,3.70
2019-03-05T15:08:03.880Z,3.83
2019-03-05T15:11:07.561Z,3.90
2019-03-05T15:14:11.264Z,3.57
2019-03-05T15:17:14.966Z,3.83
2019-03-05T15:20:18.672Z,3.97
2019-03-05T15:23:22.545Z,3.40
2019-03-05T15:26:26.318Z,3.97
2019-03-05T15:29:30.050Z,4.00
2019-03-05T15:32:33.767Z,4.10
2019-03-05T15:35:37.499Z,4.10
2019-03-05T15:38:41.243Z,4.30
2019-03-05T15:44:50.371Z,2.80
2019-03-05T15:47:54.175Z,3.30
2019-03-05T15:50:57.881Z,3.20
2019-03-05T15:54:02.158Z,3.10
2019-03-05T15:57:06.013Z,3.50
2019-03-05T16:00:13.537Z,3.60
2019-03-05T16:03:17.291Z,3.70
2019-03-05T16:06:21.006Z,3.47
2019-03-05T16:09:24.721Z,3.50
2019-03-05T16:12:28.422Z,3.80
2019-03-05T16:15:32.282Z,4.37
2019-03-05T16:18:39.103Z,3.67
2019-03-05T16:21:42.802Z,4.67
2019-03-05T16:24:46.678Z,4.27
2019-03-05T16:27:50.514Z,4.50
2019-03-05T16:31:11.314Z,3.83
2019-03-05T16:34:45.906Z,3.20
2019-03-05T16:37:57.786Z,3.47
2019-03-05T16:41:11.165Z,3.40
2019-03-05T16:44:22.942Z,3.70
2019-03-05T16:47:43.237Z,3.20
2019-03-05T16:51:00.857Z,3.10
2019-03-05T16:54:16.290Z,3.43
2019-03-05T16:57:39.103Z,3.50
2019-03-05T17:01:08.150Z,3.93
2019-03-05T17:04:29.670Z,3.53
2019-03-05T17:08:04.682Z,4.07
2019-03-05T17:11:30.156Z,4.17
2019-03-05T17:14:33.823Z,3.90
2019-03-05T17:17:37.765Z,3.63
2019-03-05T17:20:41.678Z,4.20
2019-03-05T17:23:45.517Z,4.27
2019-03-05T17:26:49.301Z,4.33
2019-03-05T17:29:53.125Z,4.07
2019-03-05T17:32:56.850Z,4.33
2019-03-05T17:36:00.775Z,4.43
2019-03-05T17:39:06.929Z,4.03
2019-03-05T17:42:10.618Z,4.43
2019-03-05T17:45:17.538Z,3.90
2019-03-05T17:48:21.235Z,4.13
2019-03-05T17:51:25.051Z,4.07
2019-03-05T17:54:28.868Z,4.10
2019-03-05T17:57:32.510Z,4.13
2019-03-05T18:00:36.791Z,4.63
2019-03-05T18:03:40.550Z,5.30
2019-03-05T18:06:44.247Z,4.27
2019-03-05T18:09:48.278Z,4.30
2019-03-05T18:12:51.946Z,4.13
2019-03-05T18:15:55.847Z,3.97
2019-03-05T18:18:59.584Z,4.27
2019-03-05T18:22:03.524Z,4.60
2019-03-05T18:25:07.941Z,4.27
2019-03-05T18:28:11.602Z,4.57
2019-03-05T18:31:15.695Z,4.80
2019-03-05T18:34:19.795Z,4.00
2019-03-05T18:37:23.649Z,4.80
2019-03-05T18:40:27.378Z,5.30
2019-03-05T18:43:31.039Z,4.87
2019-03-05T18:46:34.730Z,5.03
2019-03-05T18:49:38.462Z,4.90
2019-03-05T18:52:42.461Z,4.87
2019-03-05T18:55:46.206Z,4.30
2019-03-05T18:58:49.853Z,5.00
2019-03-05T19:01:53.773Z,4.67
2019-03-05T19:04:57.430Z,5.57
2019-03-05T19:08:01.195Z,5.40
2019-03-05T19:11:05.199Z,5.43
2019-03-05T19:14:09.129Z,5.13
2019-03-05T19:17:12.852Z,5.83
2019-03-05T19:20:18.444Z,5.47
2019-03-05T19:23:22.155Z,5.90
2019-03-05T19:26:26.172Z,5.50
2019-03-05T19:29:29.875Z,5.83
2019-03-05T19:32:33.610Z,5.60
2019-03-05T19:35:37.290Z,5.70
2019-03-05T19:38:41.056Z,5.62
2019-03-05T19:41:44.901Z,5.40
2019-03-05T19:44:48.721Z,5.90
2019-03-05T19:47:52.415Z,6.10
2019-03-05T19:50:56.156Z,5.53
2019-03-05T19:54:00.053Z,5.93
2019-03-05T19:57:03.817Z,6.90
2019-03-05T20:00:11.671Z,7.33
2019-03-05T20:03:15.415Z,6.23
2019-03-05T20:06:19.375Z,6.27
2019-03-05T20:09:23.595Z,5.50
2019-03-05T20:12:27.348Z,5.97
2019-03-05T20:15:31.162Z,6.07
2019-03-05T20:18:34.903Z,5.73
2019-03-05T20:21:38.575Z,6.10
2019-03-05T20:24:42.294Z,6.37
2019-03-05T20:27:46.036Z,6.30
2019-03-05T20:30:49.830Z,6.20
2019-03-05T20:33:53.514Z,6.00
2019-03-05T20:36:57.328Z,6.20
2019-03-05T20:40:02.752Z,6.37
2019-03-05T20:43:06.740Z,6.03
2019-03-05T20:46:14.346Z,7.00
2019-03-05T20:49:18.078Z,6.73
2019-03-05T20:52:21.812Z,7.83
2019-03-05T20:55:25.641Z,9.17
2019-03-05T20:58:29.337Z,7.73
2019-03-05T21:01:33.342Z,6.93
2019-03-05T21:04:37.071Z,9.63
2019-03-05T21:07:40.894Z,7.10
2019-03-05T21:10:45.177Z,6.87
2019-03-05T21:13:48.856Z,6.83
2019-03-05T21:16:53.051Z,7.30
2019-03-05T21:19:56.751Z,7.43
2019-03-05T21:23:00.443Z,7.67
2019-03-05T21:26:04.596Z,7.57
2019-03-05T21:29:08.322Z,7.67
2019-03-05T21:32:12.066Z,7.83
2019-03-05T21:35:16.020Z,7.03
2019-03-05T21:38:19.923Z,7.27
2019-03-05T21:41:23.780Z,7.80
2019-03-05T21:44:27.665Z,7.87
2019-03-05T21:47:31.596Z,7.83
2019-03-05T21:50:35.511Z,8.33
2019-03-05T21:53:39.383Z,8.27
2019-03-05T21:56:43.341Z,8.00
2019-03-05T21:59:46.989Z,7.57
2019-03-05T22:02:50.742Z,8.10
2019-03-05T22:05:54.392Z,7.70
2019-03-05T22:08:58.173Z,8.23
2019-03-05T22:12:01.941Z,8.40
2019-03-05T22:15:06.262Z,8.57
2019-03-05T22:18:10.466Z,7.80
2019-03-05T22:21:14.374Z,8.33
2019-03-05T22:24:18.303Z,9.17
2019-03-05T22:27:21.950Z,8.77
2019-03-05T22:30:26.760Z,8.20
2019-03-05T22:33:31.157Z,9.58
2019-03-05T22:36:34.834Z,9.30
2019-03-05T22:39:38.874Z,9.87
2019-03-05T22:42:42.933Z,8.70
2019-03-05T22:45:46.662Z,9.63
2019-03-05T22:48:50.428Z,8.87
2019-03-05T22:51:54.187Z,9.57
2019-03-05T22:54:58.167Z,9.03
2019-03-05T22:58:02.152Z,8.83
2019-03-05T23:01:22.847Z,9.03
2019-03-05T23:04:35.519Z,9.47
2019-03-05T23:07:39.310Z,9.53
2019-03-05T23:10:43.035Z,9.63
2019-03-05T23:13:47.225Z,8.97
2019-03-05T23:16:51.031Z,9.00
2019-03-05T23:19:55.459Z,10.00
2019-03-05T23:22:59.127Z,9.63
2019-03-05T23:26:03.254Z,9.20
2019-03-05T23:29:08.582Z,9.77
2019-03-05T23:32:12.847Z,9.33
2019-03-05T23:35:16.669Z,10.00
2019-03-05T23:38:20.373Z,8.97
2019-03-05T23:41:24.339Z,8.77
2019-03-05T23:44:28.509Z,9.87
2019-03-05T23:47:32.866Z,10.33
2019-03-05T23:50:36.550Z,9.88
2019-03-05T23:53:40.254Z,10.47
2019-03-05T23:56:43.969Z,8.97
2019-03-05T23:59:47.719Z,9.43
